Time;durP1;ratioP1;P1;durP2;ratioP2;P2;SDS_P1;SDS_P2;PMS_P1;PMS_P2;Temp;Humidity;BMP_temperature;BMP_pressure;BME280_temperature;BME280_humidity;BME280_pressure;Samples;Min_cycle;Max_cycle;Signal;HPM_P1;HPM_P2
2021/01/19 00:00:33;;;;;;;1.77;1.60;;;5.60;98.20;;;;;;5090038;28;20481;-75
2021/01/19 00:03:00;;;;;;;1.60;1.30;;;5.60;98.20;;;;;;5081839;28;20506;-76
2021/01/19 00:05:26;;;;;;;1.60;1.30;;;5.60;98.20;;;;;;5087798;28;20959;-76
2021/01/19 00:07:53;;;;;;;1.87;1.70;;;5.60;98.20;;;;;;5090495;28;20460;-76
2021/01/19 00:10:23;;;;;;;1.60;1.20;;;5.60;98.20;;;;;;5091493;28;20514;-75
2021/01/19 00:12:49;;;;;;;1.70;1.40;;;5.60;98.20;;;;;;5089455;28;21055;-77
2021/01/19 00:15:16;;;;;;;1.60;1.20;;;5.60;98.20;;;;;;5090436;28;20520;-76
2021/01/19 00:17:43;;;;;;;1.60;1.30;;;5.60;98.20;;;;;;5091672;28;20670;-76
2021/01/19 00:20:10;;;;;;;1.60;1.30;;;5.60;98.20;;;;;;5086077;28;20696;-77
2021/01/19 00:22:37;;;;;;;1.60;1.30;;;5.60;98.20;;;;;;5097852;28;20461;-76
2021/01/19 00:25:04;;;;;;;1.60;1.23;;;5.60;98.20;;;;;;5086037;28;20487;-75
2021/01/19 00:27:30;;;;;;;1.63;1.33;;;5.60;98.20;;;;;;5091725;28;20492;-77
2021/01/19 00:29:57;;;;;;;1.60;1.27;;;5.60;98.20;;;;;;5098201;28;20491;-77
2021/01/19 00:32:31;;;;;;;1.63;1.37;;;5.60;98.20;;;;;;5095642;28;20461;-77
2021/01/19 00:34:57;;;;;;;1.70;1.30;;;5.60;98.20;;;;;;5094643;28;20472;-76
2021/01/19 00:37:25;;;;;;;1.63;1.40;;;5.60;98.20;;;;;;5095441;28;20473;-76
2021/01/19 00:39:52;;;;;;;1.60;1.30;;;5.60;98.20;;;;;;5098388;28;20477;-75
2021/01/19 00:42:23;;;;;;;1.60;1.20;;;5.60;98.20;;;;;;5095845;28;20475;-76
2021/01/19 00:44:50;;;;;;;1.63;1.30;;;5.60;98.20;;;;;;5092320;28;21102;-76
2021/01/19 00:47:16;;;;;;;1.60;1.30;;;5.60;98.20;;;;;;5085536;28;20987;-76
2021/01/19 00:49:43;;;;;;;1.60;1.30;;;5.60;98.20;;;;;;5089814;28;20499;-76
2021/01/19 00:52:11;;;;;;;1.70;1.30;;;5.60;98.20;;;;;;5087080;28;20544;-77
2021/01/19 00:54:37;;;;;;;1.60;1.30;;;5.60;98.20;;;;;;5090131;28;20492;-76
2021/01/19 00:57:04;;;;;;;1.63;1.30;;;5.60;98.20;;;;;;5090078;28;20464;-77
2021/01/19 00:59:30;;;;;;;1.67;1.30;;;5.60;98.20;;;;;;5086504;28;20507;-77
2021/01/19 01:01:57;;;;;;;1.63;1.33;;;5.60;98.20;;;;;;5089297;28;21030;-76
2021/01/19 01:04:23;;;;;;;1.60;1.30;;;5.60;98.20;;;;;;5084583;28;20495;-77
2021/01/19 01:06:54;;;;;;;1.60;1.30;;;5.60;98.20;;;;;;5087495;28;20520;-77
2021/01/19 01:09:20;;;;;;;1.67;1.30;;;5.60;98.20;;;;;;5095331;28;21056;-76
2021/01/19 01:11:47;;;;;;;1.60;1.30;;;5.60;98.20;;;;;;5086584;28;20473;-76
2021/01/19 01:14:14;;;;;;;1.60;1.20;;;5.60;98.20;;;;;;5084049;28;20453;-77
2021/01/19 01:16:41;;;;;;;1.60;1.30;;;5.60;98.20;;;;;;5090096;28;20547;-76
2021/01/19 01:19:09;;;;;;;1.63;1.30;;;5.60;98.20;;;;;;5097170;28;20483;-76
2021/01/19 01:21:36;;;;;;;1.60;1.30;;;5.60;98.20;;;;;;5087431;28;20489;-77
2021/01/19 01:24:04;;;;;;;1.60;1.30;;;5.60;98.20;;;;;;5081364;28;20496;-76
2021/01/19 01:26:31;;;;;;;1.60;1.30;;;5.60;98.20;;;;;;5085096;28;20465;-77
2021/01/19 01:28:57;;;;;;;1.70;1.40;;;5.60;98.20;;;;;;5088260;28;20846;-77
2021/01/19 01:31:24;;;;;;;1.60;1.40;;;5.60;98.20;;;;;;5091107;28;20848;-77
2021/01/19 01:33:50;;;;;;;1.60;1.30;;;5.50;98.20;;;;;;5089474;28;20945;-76
2021/01/19 01:36:17;;;;;;;1.60;1.37;;;5.50;98.20;;;;;;5082652;28;20549;-76
2021/01/19 01:38:43;;;;;;;1.70;1.40;;;5.50;98.20;;;;;;5088567;28;20476;-77
2021/01/19 01:41:18;;;;;;;1.63;1.33;;;5.50;98.20;;;;;;5092865;28;20456;-77
2021/01/19 01:43:45;;;;;;;1.70;1.50;;;5.50;98.20;;;;;;5088004;28;20585;-77
2021/01/19 01:46:12;;;;;;;1.67;1.37;;;5.50;98.20;;;;;;5088403;28;20539;-77
2021/01/19 01:48:40;;;;;;;1.60;1.30;;;5.50;98.20;;;;;;5098375;28;20562;-77
2021/01/19 01:51:08;;;;;;;1.60;1.30;;;5.50;98.20;;;;;;5103739;28;20916;-77
2021/01/19 01:53:35;;;;;;;1.63;1.30;;;5.50;98.20;;;;;;5083518;28;20497;-76
2021/01/19 01:56:02;;;;;;;1.63;1.30;;;5.50;98.20;;;;;;5093238;28;20905;-77
2021/01/19 01:58:30;;;;;;;1.60;1.30;;;5.50;98.20;;;;;;5092791;28;20465;-76
2021/01/19 02:00:57;;;;;;;1.70;1.33;;;5.40;98.20;;;;;;5087635;28;20548;-75
2021/01/19 02:03:23;;;;;;;1.60;1.30;;;5.40;98.20;;;;;;5091392;28;20490;-76
2021/01/19 02:05:50;;;;;;;1.63;1.30;;;5.40;98.20;;;;;;5092165;28;20457;-77
2021/01/19 02:08:27;;;;;;;1.60;1.27;;;5.40;98.20;;;;;;5090021;28;20484;-77
2021/01/19 02:11:04;;;;;;;1.60;1.30;;;5.40;98.20;;;;;;5091126;28;20776;-77
2021/01/19 02:13:43;;;;;;;1.67;1.37;;;5.40;98.20;;;;;;5089013;28;20460;-77
2021/01/19 02:16:23;;;;;;;1.60;1.30;;;5.40;98.20;;;;;;5092829;28;20484;-76
2021/01/19 02:19:02;;;;;;;1.60;1.30;;;5.40;98.20;;;;;;5089095;28;20919;-76
2021/01/19 02:21:55;;;;;;;1.70;1.40;;;5.40;98.20;;;;;;5096351;28;20943;-77
2021/01/19 02:24:34;;;;;;;1.70;1.40;;;5.30;98.20;;;;;;5086203;28;20968;-75
2021/01/19 02:27:14;;;;;;;1.70;1.50;;;5.30;98.20;;;;;;5086162;28;20465;-77
2021/01/19 02:30:16;;;;;;;1.60;1.30;;;5.30;98.20;;;;;;5091365;28;20526;-77
2021/01/19 02:32:56;;;;;;;1.60;1.30;;;5.30;98.20;;;;;;5079003;28;20468;-76
2021/01/19 02:35:25;;;;;;;1.67;1.40;;;5.30;98.20;;;;;;5086619;28;20496;-77
2021/01/19 02:38:01;;;;;;;1.70;1.40;;;5.30;98.20;;;;;;5080268;28;20472;-75
2021/01/19 02:40:27;;;;;;;1.60;1.20;;;5.30;98.20;;;;;;5086699;28;20495;-77
2021/01/19 02:43:23;;;;;;;1.60;1.30;;;5.20;98.20;;;;;;5091573;28;20464;-76
2021/01/19 02:45:50;;;;;;;1.60;1.30;;;5.20;98.20;;;;;;5081349;28;20976;-77
2021/01/19 02:48:17;;;;;;;1.70;1.30;;;5.20;98.20;;;;;;5086454;28;20494;-76
2021/01/19 02:50:44;;;;;;;1.63;1.30;;;5.20;98.20;;;;;;5091401;28;20519;-76
2021/01/19 02:53:12;;;;;;;1.70;1.40;;;5.10;98.20;;;;;;5091925;28;20907;-76
2021/01/19 02:55:40;;;;;;;1.60;1.23;;;5.10;98.20;;;;;;5089975;28;20573;-77
2021/01/19 02:58:16;;;;;;;1.60;1.30;;;5.10;98.20;;;;;;5082905;28;20496;-76
2021/01/19 03:01:01;;;;;;;1.63;1.40;;;5.10;98.20;;;;;;5089127;28;21173;-77
2021/01/19 03:03:33;;;;;;;1.70;1.40;;;5.00;98.20;;;;;;5081942;28;20466;-77
2021/01/19 03:06:06;;;;;;;1.60;1.30;;;5.00;98.20;;;;;;5087327;28;20460;-76
2021/01/19 03:08:34;;;;;;;1.70;1.40;;;5.00;98.20;;;;;;5090624;28;20463;-77
2021/01/19 03:11:03;;;;;;;1.67;1.30;;;5.00;98.20;;;;;;5086129;28;20827;-76
2021/01/19 03:13:30;;;;;;;1.60;1.30;;;5.00;98.20;;;;;;5089488;28;20460;-77
2021/01/19 03:16:07;;;;;;;1.70;1.40;;;4.90;98.20;;;;;;5089269;28;20485;-77
2021/01/19 03:18:36;;;;;;;1.70;1.50;;;4.90;98.20;;;;;;5086343;28;20487;-77
2021/01/19 03:21:05;;;;;;;1.70;1.50;;;4.90;98.20;;;;;;5091866;28;20461;-76
2021/01/19 03:23:32;;;;;;;1.70;1.50;;;4.90;98.20;;;;;;5090371;28;20957;-76
2021/01/19 03:25:59;;;;;;;1.63;1.33;;;4.80;98.20;;;;;;5089277;28;20544;-76
2021/01/19 03:28:26;;;;;;;1.60;1.30;;;4.80;98.20;;;;;;5084951;28;20456;-76
2021/01/19 03:30:53;;;;;;;1.70;1.40;;;4.80;98.20;;;;;;5084566;28;20481;-77
2021/01/19 03:33:20;;;;;;;1.60;1.30;;;4.80;98.20;;;;;;5095782;28;20453;-76
2021/01/19 03:35:47;;;;;;;1.60;1.30;;;4.80;98.20;;;;;;5088530;28;20518;-76
2021/01/19 03:38:13;;;;;;;1.63;1.30;;;4.80;98.20;;;;;;5087007;28;20452;-76
2021/01/19 03:40:40;;;;;;;1.70;1.40;;;4.80;98.20;;;;;;5090158;28;20986;-77
2021/01/19 03:43:07;;;;;;;1.60;1.40;;;4.80;98.20;;;;;;5089884;28;20481;-77
2021/01/19 03:45:34;;;;;;;1.63;1.33;;;4.80;98.20;;;;;;5080670;28;20547;-76
2021/01/19 03:48:01;;;;;;;1.63;1.30;;;4.80;98.20;;;;;;5082081;28;20744;-76
2021/01/19 03:50:28;;;;;;;1.60;1.30;;;4.80;98.20;;;;;;5091035;28;20512;-77
2021/01/19 03:52:56;;;;;;;1.60;1.30;;;4.80;98.20;;;;;;5095838;28;20895;-76
2021/01/19 03:55:23;;;;;;;1.70;1.40;;;4.80;98.20;;;;;;5083926;28;20844;-77
2021/01/19 03:57:50;;;;;;;1.70;1.40;;;4.80;98.20;;;;;;5084197;28;20718;-76
2021/01/19 04:00:17;;;;;;;1.60;1.30;;;4.80;98.20;;;;;;5084620;28;20480;-76
2021/01/19 04:02:44;;;;;;;1.60;1.30;;;4.80;98.20;;;;;;5090999;28;20842;-77
2021/01/19 04:05:11;;;;;;;1.60;1.30;;;4.80;98.20;;;;;;5089496;28;20453;-76
2021/01/19 04:07:39;;;;;;;1.63;1.30;;;4.80;98.20;;;;;;5087783;28;20499;-77
2021/01/19 04:10:09;;;;;;;1.60;1.40;;;4.80;98.20;;;;;;5086622;28;20472;-77
2021/01/19 04:12:36;;;;;;;1.60;1.30;;;4.80;98.20;;;;;;5086203;28;20552;-76
2021/01/19 04:15:04;;;;;;;1.60;1.30;;;4.90;98.20;;;;;;5090040;28;20520;-75
2021/01/19 04:17:31;;;;;;;1.67;1.50;;;4.90;98.20;;;;;;5085812;28;20544;-76
2021/01/19 04:19:57;;;;;;;1.67;1.40;;;4.90;98.20;;;;;;5093567;28;20514;-76
2021/01/19 04:22:24;;;;;;;1.63;1.30;;;4.90;98.20;;;;;;5094226;28;20463;-77
2021/01/19 04:24:51;;;;;;;1.63;1.30;;;4.90;98.20;;;;;;5086177;28;20467;-76
2021/01/19 04:27:19;;;;;;;1.60;1.30;;;4.90;98.20;;;;;;5083167;28;20461;-76
2021/01/19 04:29:45;;;;;;;1.63;1.43;;;4.90;98.20;;;;;;5089588;28;20515;-77
2021/01/19 04:32:13;;;;;;;1.60;1.30;;;4.90;98.20;;;;;;5091886;28;20503;-77
2021/01/19 04:34:39;;;;;;;1.60;1.30;;;4.90;98.20;;;;;;5088390;28;20492;-77
2021/01/19 04:37:06;;;;;;;1.70;1.40;;;4.90;98.20;;;;;;5087674;28;20461;-76
2021/01/19 04:39:32;;;;;;;1.60;1.27;;;4.90;98.20;;;;;;5090497;28;20886;-77
2021/01/19 04:41:59;;;;;;;1.63;1.30;;;4.90;98.20;;;;;;5090831;28;20529;-77
2021/01/19 04:44:27;;;;;;;1.67;1.43;;;4.90;98.20;;;;;;5082341;28;20469;-77
2021/01/19 04:46:54;;;;;;;1.70;1.40;;;4.90;98.20;;;;;;5087281;28;20906;-76
2021/01/19 04:49:21;;;;;;;1.60;1.30;;;4.90;98.20;;;;;;5088362;28;20917;-76
2021/01/19 04:51:48;;;;;;;1.67;1.40;;;4.90;98.20;;;;;;5087090;28;20481;-76
2021/01/19 04:54:17;;;;;;;1.70;1.40;;;4.90;98.20;;;;;;5085562;28;20556;-76
2021/01/19 04:56:51;;;;;;;1.63;1.30;;;4.90;98.20;;;;;;5086813;28;20484;-77
2021/01/19 04:59:23;;;;;;;1.60;1.30;;;4.90;98.20;;;;;;5088791;28;20928;-77
2021/01/19 05:02:31;;;;;;;1.70;1.40;;;4.90;98.20;;;;;;5090640;28;20460;-78
2021/01/19 05:05:20;;;;;;;1.70;1.40;;;4.90;98.20;;;;;;5086470;28;20952;-76
2021/01/19 05:08:14;;;;;;;1.60;1.30;;;4.90;98.20;;;;;;5087924;28;20541;-76
2021/01/19 05:10:42;;;;;;;1.70;1.60;;;4.90;98.20;;;;;;5073135;28;20484;-77
2021/01/19 05:13:10;;;;;;;1.60;1.30;;;4.80;98.20;;;;;;5089563;28;20558;-77
2021/01/19 05:15:43;;;;;;;1.60;1.27;;;4.80;98.20;;;;;;5094725;28;20487;-76
2021/01/19 05:18:11;;;;;;;1.67;1.40;;;4.80;98.20;;;;;;5093338;28;20465;-77
2021/01/19 05:20:45;;;;;;;1.60;1.30;;;4.80;98.20;;;;;;5089539;28;20516;-76
2021/01/19 05:23:21;;;;;;;1.83;1.73;;;4.80;98.20;;;;;;5089538;28;20474;-77
2021/01/19 05:25:53;;;;;;;1.70;1.40;;;4.80;98.20;;;;;;5093206;28;20931;-77
2021/01/19 05:28:20;;;;;;;1.70;1.40;;;4.80;98.20;;;;;;5089508;28;20496;-77
2021/01/19 05:30:52;;;;;;;1.60;1.30;;;4.80;98.20;;;;;;5094893;28;20455;-77
2021/01/19 05:33:19;;;;;;;1.63;1.30;;;4.80;98.20;;;;;;5085564;28;20887;-77
2021/01/19 05:35:46;;;;;;;1.60;1.23;;;4.80;98.20;;;;;;5093400;28;20481;-77
2021/01/19 05:38:12;;;;;;;1.63;1.30;;;4.80;98.20;;;;;;5095395;28;20539;-77
2021/01/19 05:40:44;;;;;;;1.70;1.50;;;4.80;98.20;;;;;;5093807;28;20463;-77
2021/01/19 05:43:11;;;;;;;1.60;1.30;;;4.80;98.20;;;;;;5093045;28;20469;-77
2021/01/19 05:45:37;;;;;;;1.67;1.30;;;4.80;98.20;;;;;;5095321;28;20448;-77
2021/01/19 05:48:14;;;;;;;1.70;1.47;;;4.80;98.20;;;;;;5094585;28;20521;-77
2021/01/19 05:50:41;;;;;;;1.60;1.40;;;4.80;98.20;;;;;;5102417;28;20448;-77
2021/01/19 05:53:15;;;;;;;1.70;1.40;;;4.80;98.20;;;;;;5090301;28;20496;-80
2021/01/19 05:55:43;;;;;;;1.60;1.30;;;4.80;98.20;;;;;;5094934;28;21069;-78
2021/01/19 05:58:13;;;;;;;1.60;1.30;;;4.80;98.20;;;;;;5094858;28;20531;-77
2021/01/19 06:00:41;;;;;;;1.60;1.30;;;4.80;98.20;;;;;;5093339;28;20468;-77
2021/01/19 06:03:15;;;;;;;1.67;1.40;;;4.80;98.20;;;;;;5090508;28;20547;-79
2021/01/19 06:05:43;;;;;;;1.60;1.30;;;4.80;98.20;;;;;;5093397;28;21002;-78
2021/01/19 06:08:10;;;;;;;1.60;1.30;;;4.80;98.20;;;;;;5095224;28;20460;-79
2021/01/19 06:10:37;;;;;;;1.60;1.30;;;4.90;98.20;;;;;;5095040;28;21006;-78
2021/01/19 06:13:04;;;;;;;1.70;1.40;;;4.90;98.20;;;;;;5088784;28;20476;-78
2021/01/19 06:15:31;;;;;;;1.60;1.30;;;4.90;98.20;;;;;;5095186;28;20571;-79
2021/01/19 06:17:57;;;;;;;1.63;1.33;;;4.90;98.20;;;;;;5094377;28;20951;-78
2021/01/19 06:20:23;;;;;;;1.60;1.30;;;4.90;98.20;;;;;;5096437;28;20817;-78
2021/01/19 06:22:51;;;;;;;1.60;1.30;;;4.90;98.20;;;;;;5094893;28;20460;-78
2021/01/19 06:25:18;;;;;;;1.70;1.50;;;4.90;98.20;;;;;;5091909;28;20457;-78
2021/01/19 06:27:44;;;;;;;1.67;1.40;;;4.90;98.20;;;;;;5095741;28;20495;-78
2021/01/19 06:30:13;;;;;;;1.60;1.30;;;4.90;98.20;;;;;;5084642;28;20519;-79
2021/01/19 06:32:46;;;;;;;1.70;1.50;;;5.00;98.20;;;;;;5093249;28;20463;-78
2021/01/19 06:35:15;;;;;;;1.63;1.30;;;5.00;98.20;;;;;;5095160;28;20484;-81
2021/01/19 06:37:42;;;;;;;1.63;1.40;;;5.00;98.20;;;;;;5095514;28;20469;-78
2021/01/19 06:40:12;;;;;;;1.60;1.30;;;5.00;98.20;;;;;;5089326;28;20511;-78
2021/01/19 06:42:39;;;;;;;1.60;1.30;;;5.00;98.20;;;;;;5096259;28;20460;-78
2021/01/19 06:45:08;;;;;;;1.67;1.30;;;5.00;98.20;;;;;;5097533;28;20499;-77
2021/01/19 06:47:41;;;;;;;1.63;1.30;;;5.10;98.20;;;;;;5093113;28;20510;-78
2021/01/19 06:50:09;;;;;;;1.60;1.30;;;5.10;98.20;;;;;;5092721;28;20472;-78
2021/01/19 06:52:40;;;;;;;1.60;1.30;;;5.10;98.20;;;;;;5098788;28;20509;-78
2021/01/19 06:55:18;;;;;;;1.60;1.30;;;5.10;98.20;;;;;;5096340;28;20484;-78
2021/01/19 06:57:53;;;;;;;1.60;1.30;;;5.10;98.20;;;;;;5087211;28;20512;-78
2021/01/19 07:00:23;;;;;;;1.60;1.30;;;5.10;98.20;;;;;;5091590;28;20472;-79
2021/01/19 07:02:51;;;;;;;1.70;1.40;;;5.20;98.20;;;;;;5086374;28;20456;-77
2021/01/19 07:05:19;;;;;;;1.60;1.30;;;5.20;98.20;;;;;;5084313;28;20488;-77
2021/01/19 07:07:47;;;;;;;1.60;1.30;;;5.20;98.20;;;;;;5087552;28;20494;-78
2021/01/19 07:10:21;;;;;;;1.60;1.40;;;5.20;98.20;;;;;;5091779;28;20541;-77
2021/01/19 07:12:58;;;;;;;1.60;1.30;;;5.20;98.20;;;;;;5093123;28;20489;-78
2021/01/19 07:16:00;;;;;;;1.60;1.30;;;5.20;98.20;;;;;;5095880;28;20691;-78
2021/01/19 07:18:43;;;;;;;1.60;1.30;;;5.20;98.20;;;;;;5092483;28;20490;-78
2021/01/19 07:21:10;;;;;;;1.70;1.40;;;5.20;98.20;;;;;;5097089;28;20862;-79
2021/01/19 07:24:13;;;;;;;1.70;1.30;;;5.20;98.20;;;;;;5094643;28;20475;-79
2021/01/19 07:26:44;;;;;;;1.60;1.30;;;5.30;98.20;;;;;;5086005;28;20484;-79
2021/01/19 07:29:10;;;;;;;1.60;1.30;;;5.30;98.20;;;;;;5092011;28;20530;-78
2021/01/19 07:31:37;;;;;;;1.60;1.30;;;5.30;98.20;;;;;;5089238;28;20493;-78
2021/01/19 07:34:05;;;;;;;1.60;1.30;;;5.30;98.20;;;;;;5089892;28;20477;-78
2021/01/19 07:36:32;;;;;;;1.60;1.30;;;5.30;98.20;;;;;;5093185;28;20480;-78
2021/01/19 07:38:58;;;;;;;1.67;1.43;;;5.30;98.20;;;;;;5088921;28;20616;-78
2021/01/19 07:41:27;;;;;;;1.70;1.40;;;5.30;98.20;;;;;;5083523;28;20927;-80
2021/01/19 07:43:54;;;;;;;1.60;1.30;;;5.30;98.20;;;;;;5092217;28;20462;-78
2021/01/19 07:46:24;;;;;;;1.67;1.40;;;5.30;98.20;;;;;;5086903;28;20912;-79
2021/01/19 07:49:00;;;;;;;1.63;1.30;;;5.30;98.20;;;;;;5085924;28;20515;-78
2021/01/19 07:51:37;;;;;;;1.70;1.40;;;5.40;98.20;;;;;;5088517;28;20464;-79
2021/01/19 07:54:04;;;;;;;1.63;1.30;;;5.40;98.20;;;;;;5095006;28;20498;-79
2021/01/19 07:56:31;;;;;;;1.93;1.73;;;5.40;98.20;;;;;;5087634;28;20473;-79
2021/01/19 07:58:59;;;;;;;1.70;1.47;;;5.40;98.20;;;;;;5092243;28;20484;-79
2021/01/19 08:01:27;;;;;;;1.60;1.23;;;5.40;98.20;;;;;;5092861;28;20510;-79
2021/01/19 08:03:53;;;;;;;1.63;1.30;;;5.40;98.20;;;;;;5086823;28;20490;-78
2021/01/19 08:06:30;;;;;;;1.70;1.60;;;5.40;98.20;;;;;;5093704;28;20638;-78
2021/01/19 08:08:57;;;;;;;1.60;1.20;;;5.40;98.20;;;;;;5091411;28;20575;-78
2021/01/19 08:11:23;;;;;;;1.60;1.30;;;5.40;98.20;;;;;;5089860;28;20480;-78
2021/01/19 08:14:00;;;;;;;1.70;1.50;;;5.40;98.20;;;;;;5086037;28;20523;-78
2021/01/19 08:16:28;;;;;;;1.60;1.27;;;5.40;98.20;;;;;;5088488;28;20515;-79
2021/01/19 08:19:05;;;;;;;1.63;1.30;;;5.40;98.20;;;;;;5090087;28;20578;-78
2021/01/19 08:21:36;;;;;;;1.67;1.37;;;5.40;98.20;;;;;;5088264;28;20460;-78
2021/01/19 08:24:04;;;;;;;1.60;1.30;;;5.40;98.20;;;;;;5090913;28;20476;-77
2021/01/19 08:26:32;;;;;;;1.60;1.30;;;5.40;98.20;;;;;;5089404;28;20525;-77
2021/01/19 08:29:02;;;;;;;1.63;1.30;;;5.40;98.20;;;;;;5085947;28;20537;-77
2021/01/19 08:31:29;;;;;;;1.63;1.40;;;5.40;98.20;;;;;;5090716;28;20460;-78
2021/01/19 08:34:00;;;;;;;1.70;1.40;;;5.40;98.20;;;;;;5091757;28;20460;-78
2021/01/19 08:36:27;;;;;;;1.60;1.40;;;5.40;98.20;;;;;;5090591;28;20924;-77
2021/01/19 08:38:56;;;;;;;1.60;1.30;;;5.40;98.20;;;;;;5082777;28;20482;-77
2021/01/19 08:41:22;;;;;;;1.70;1.40;;;5.40;98.20;;;;;;5088166;28;20456;-77
2021/01/19 08:43:56;;;;;;;1.60;1.30;;;5.50;98.20;;;;;;5092779;28;20468;-77
2021/01/19 08:46:24;;;;;;;1.70;1.40;;;5.50;98.20;;;;;;5088730;28;20522;-78
2021/01/19 08:48:51;;;;;;;1.60;1.30;;;5.50;98.20;;;;;;5096275;28;20472;-79
2021/01/19 08:51:22;;;;;;;1.60;1.30;;;5.50;98.20;;;;;;5092450;28;20464;-78
2021/01/19 08:53:49;;;;;;;1.67;1.30;;;5.50;98.20;;;;;;5092409;28;20457;-78
2021/01/19 08:56:20;;;;;;;1.70;1.30;;;5.50;98.20;;;;;;5098541;28;20915;-78
2021/01/19 08:58:46;;;;;;;1.63;1.30;;;5.50;98.20;;;;;;5097069;28;20592;-76
2021/01/19 09:01:13;;;;;;;1.63;1.33;;;5.50;98.20;;;;;;5089398;28;20487;-77
2021/01/19 09:03:41;;;;;;;1.60;1.30;;;5.60;98.20;;;;;;5082542;28;20556;-77
2021/01/19 09:06:08;;;;;;;1.63;1.30;;;5.60;98.20;;;;;;5089810;28;20492;-77
2021/01/19 09:08:38;;;;;;;1.63;1.30;;;5.60;98.20;;;;;;5089314;28;20480;-77
2021/01/19 09:11:06;;;;;;;1.60;1.20;;;5.60;98.20;;;;;;5085767;28;20530;-77
2021/01/19 09:13:36;;;;;;;1.60;1.30;;;5.60;98.20;;;;;;5094744;28;20866;-78
2021/01/19 09:16:03;;;;;;;1.60;1.20;;;5.60;98.20;;;;;;5095427;28;20560;-78
2021/01/19 09:18:29;;;;;;;1.63;1.30;;;5.60;98.20;;;;;;5093214;28;20502;-78
2021/01/19 09:21:06;;;;;;;1.60;1.23;;;5.60;98.20;;;;;;5095481;28;20488;-78
2021/01/19 09:23:35;;;;;;;1.63;1.33;;;5.70;98.20;;;;;;5096079;28;20460;-79
2021/01/19 09:26:06;;;;;;;1.60;1.30;;;5.70;98.20;;;;;;5090009;28;20522;-78
2021/01/19 09:28:34;;;;;;;1.60;1.30;;;5.70;98.20;;;;;;5094152;28;20467;-79
2021/01/19 09:31:11;;;;;;;1.60;1.30;;;5.70;98.20;;;;;;5095119;28;20467;-77
2021/01/19 09:33:39;;;;;;;1.60;1.23;;;5.70;98.20;;;;;;5092078;28;20819;-77
2021/01/19 09:36:08;;;;;;;1.70;1.50;;;5.70;98.20;;;;;;5086181;28;20518;-77
2021/01/19 09:38:35;;;;;;;1.67;1.30;;;5.80;98.20;;;;;;5090176;28;21054;-77
2021/01/19 09:41:02;;;;;;;1.70;1.40;;;5.80;98.20;;;;;;5087567;28;20542;-77
2021/01/19 09:43:29;;;;;;;1.60;1.30;;;5.90;98.20;;;;;;5094618;28;20487;-78
2021/01/19 09:46:00;;;;;;;1.60;1.27;;;6.00;98.20;;;;;;5088582;28;20476;-77
2021/01/19 09:48:30;;;;;;;1.63;1.27;;;6.10;98.20;;;;;;5089047;28;20547;-76
2021/01/19 09:51:01;;;;;;;1.60;1.30;;;6.10;98.20;;;;;;5092199;28;20469;-78
2021/01/19 09:54:04;;;;;;;1.60;1.30;;;6.20;98.20;;;;;;5086670;28;20541;-78
2021/01/19 09:56:32;;;;;;;1.67;1.30;;;6.30;98.20;;;;;;5071760;28;20476;-77
2021/01/19 09:59:01;;;;;;;1.67;1.30;;;6.30;98.20;;;;;;5093432;28;20526;-78
2021/01/19 10:01:28;;;;;;;1.60;1.20;;;6.40;98.20;;;;;;5085824;28;20467;-76
2021/01/19 10:03:54;;;;;;;1.63;1.30;;;6.40;98.20;;;;;;5084681;28;20464;-76
2021/01/19 10:06:23;;;;;;;1.60;1.20;;;6.40;98.20;;;;;;5090888;28;20534;-77
2021/01/19 10:08:52;;;;;;;1.60;1.30;;;6.50;98.20;;;;;;5085181;28;20571;-77
2021/01/19 10:11:29;;;;;;;1.67;1.30;;;6.50;98.20;;;;;;5090455;28;20701;-77
2021/01/19 10:13:57;;;;;;;1.60;1.30;;;6.50;98.20;;;;;;5092833;28;20542;-78
2021/01/19 10:16:28;;;;;;;1.60;1.30;;;6.60;98.20;;;;;;5088714;28;20936;-78
2021/01/19 10:18:55;;;;;;;1.70;1.43;;;6.60;98.20;;;;;;5089178;28;20979;-78
2021/01/19 10:21:31;;;;;;;1.67;1.30;;;6.60;98.20;;;;;;5089345;28;20547;-76
2021/01/19 10:23:58;;;;;;;1.63;1.33;;;6.60;98.20;;;;;;5082193;28;20521;-77
2021/01/19 10:26:28;;;;;;;1.70;1.40;;;6.70;98.20;;;;;;5086429;28;20453;-77
2021/01/19 10:28:57;;;;;;;1.63;1.30;;;6.70;98.20;;;;;;5087396;28;20485;-77
2021/01/19 10:31:27;;;;;;;1.70;1.30;;;6.70;98.20;;;;;;5085177;28;20467;-77
2021/01/19 10:33:57;;;;;;;1.60;1.20;;;6.70;98.20;;;;;;5085302;28;20491;-76
2021/01/19 10:36:25;;;;;;;1.60;1.20;;;6.70;98.20;;;;;;5087983;28;20496;-77
2021/01/19 10:38:52;;;;;;;1.70;1.40;;;6.70;98.20;;;;;;5087655;28;20595;-77
2021/01/19 10:41:27;;;;;;;1.63;1.30;;;6.70;98.20;;;;;;5077818;28;20504;-76
2021/01/19 10:43:54;;;;;;;1.60;1.30;;;6.80;98.20;;;;;;5085713;28;20460;-76
2021/01/19 10:46:25;;;;;;;1.67;1.30;;;6.80;98.20;;;;;;5088062;28;20532;-76
2021/01/19 10:49:05;;;;;;;1.70;1.30;;;6.80;98.20;;;;;;5088300;28;21144;-76
2021/01/19 10:51:33;;;;;;;1.60;1.20;;;6.80;98.20;;;;;;5086518;28;20492;-76
2021/01/19 10:54:19;;;;;;;1.60;1.30;;;6.90;98.20;;;;;;5087490;28;20465;-76
2021/01/19 10:56:46;;;;;;;1.63;1.20;;;6.90;98.20;;;;;;5086232;28;20519;-75
2021/01/19 10:59:13;;;;;;;1.60;1.20;;;6.90;98.20;;;;;;5087434;28;20480;-74
2021/01/19 11:01:40;;;;;;;1.70;1.40;;;6.90;98.20;;;;;;5080696;28;20548;-77
2021/01/19 11:04:08;;;;;;;1.60;1.20;;;6.90;98.20;;;;;;5083691;28;21031;-76
2021/01/19 11:06:36;;;;;;;1.60;1.20;;;6.90;98.20;;;;;;5085325;28;20467;-76
2021/01/19 11:09:04;;;;;;;1.60;1.30;;;6.90;98.20;;;;;;5078266;28;20500;-75
2021/01/19 11:11:30;;;;;;;1.70;1.57;;;6.90;98.20;;;;;;5079939;28;20964;-75
2021/01/19 11:14:03;;;;;;;1.60;1.20;;;7.00;98.20;;;;;;5082329;28;20469;-75
2021/01/19 11:16:32;;;;;;;1.67;1.30;;;7.00;98.20;;;;;;5085830;28;20488;-75
2021/01/19 11:19:04;;;;;;;1.60;1.20;;;7.00;98.20;;;;;;5086687;28;20567;-75
2021/01/19 11:21:31;;;;;;;1.60;1.30;;;7.00;98.20;;;;;;5084061;28;20736;-76
2021/01/19 11:23:58;;;;;;;1.60;1.30;;;7.00;98.20;;;;;;5080580;28;20462;-76
2021/01/19 11:26:25;;;;;;;1.70;1.30;;;7.10;98.20;;;;;;5083670;28;20940;-76
2021/01/19 11:28:51;;;;;;;1.63;1.30;;;7.10;98.20;;;;;;5079794;28;20480;-76
2021/01/19 11:31:22;;;;;;;1.70;1.30;;;7.10;98.20;;;;;;5080532;28;20516;-76
2021/01/19 11:33:49;;;;;;;1.60;1.20;;;7.10;98.20;;;;;;5086420;28;20469;-76
2021/01/19 11:36:24;;;;;;;1.60;1.30;;;7.10;98.20;;;;;;5081246;28;20493;-76
2021/01/19 11:38:51;;;;;;;1.67;1.30;;;7.10;98.20;;;;;;5077773;28;20484;-75
2021/01/19 11:41:20;;;;;;;1.63;1.30;;;7.20;98.20;;;;;;5084018;28;20472;-75
2021/01/19 11:43:46;;;;;;;1.60;1.30;;;7.20;98.20;;;;;;5083974;28;20567;-76
2021/01/19 11:46:18;;;;;;;1.60;1.30;;;7.20;98.20;;;;;;5085669;28;20456;-75
2021/01/19 11:48:44;;;;;;;1.60;1.20;;;7.30;98.20;;;;;;5088674;28;20558;-74
2021/01/19 11:51:14;;;;;;;1.70;1.30;;;7.30;98.20;;;;;;5076947;28;20511;-75
2021/01/19 11:53:42;;;;;;;1.60;1.30;;;7.30;98.20;;;;;;5079869;28;20530;-75
2021/01/19 11:56:08;;;;;;;1.63;1.30;;;7.40;98.20;;;;;;5076873;28;20480;-77
2021/01/19 11:58:34;;;;;;;1.70;1.43;;;7.40;98.20;;;;;;5080945;28;20845;-77
2021/01/19 12:01:01;;;;;;;1.60;1.30;;;7.40;98.20;;;;;;5088747;28;20475;-76
2021/01/19 12:03:27;;;;;;;1.67;1.30;;;7.40;98.20;;;;;;5083939;28;20545;-77
2021/01/19 12:05:54;;;;;;;1.70;1.33;;;7.50;98.20;;;;;;5085492;28;20468;-77
2021/01/19 12:08:20;;;;;;;1.70;1.60;;;7.50;98.20;;;;;;5081704;28;20471;-76
2021/01/19 12:10:47;;;;;;;1.60;1.20;;;7.50;98.20;;;;;;5079965;28;20492;-76
2021/01/19 12:13:14;;;;;;;1.63;1.30;;;7.50;98.20;;;;;;5085501;28;20784;-76
2021/01/19 12:15:42;;;;;;;1.63;1.20;;;7.50;98.20;;;;;;5080303;28;20670;-77
2021/01/19 12:18:09;;;;;;;1.70;1.30;;;7.60;98.20;;;;;;5083184;28;20464;-76
2021/01/19 12:20:35;;;;;;;1.70;1.30;;;7.60;98.20;;;;;;5084875;28;20488;-76
2021/01/19 12:23:02;;;;;;;1.70;1.30;;;7.60;98.20;;;;;;5080043;28;21241;-76
2021/01/19 12:25:29;;;;;;;1.63;1.20;;;7.60;98.20;;;;;;5082117;28;21216;-77
2021/01/19 12:27:56;;;;;;;1.60;1.20;;;7.60;98.20;;;;;;5085167;28;20495;-76
2021/01/19 12:30:23;;;;;;;1.63;1.27;;;7.60;98.20;;;;;;5084595;28;20929;-76
2021/01/19 12:32:52;;;;;;;1.60;1.20;;;7.70;98.20;;;;;;5070331;28;21007;-75
2021/01/19 12:35:19;;;;;;;1.70;1.30;;;7.70;98.20;;;;;;5082333;28;20485;-75
2021/01/19 12:37:45;;;;;;;1.63;1.30;;;7.70;98.20;;;;;;5082666;28;20831;-74
2021/01/19 12:40:13;;;;;;;1.60;1.20;;;7.80;98.20;;;;;;5080582;28;20578;-75
2021/01/19 12:42:41;;;;;;;1.60;1.30;;;7.80;98.20;;;;;;5077320;28;20505;-74
2021/01/19 12:45:10;;;;;;;1.60;1.20;;;7.90;98.20;;;;;;5075091;28;21054;-76
2021/01/19 12:47:36;;;;;;;1.60;1.20;;;7.90;98.20;;;;;;5082065;28;20895;-75
2021/01/19 12:50:03;;;;;;;1.70;1.30;;;7.90;98.20;;;;;;5081849;28;20488;-75
2021/01/19 12:52:30;;;;;;;1.70;1.20;;;7.90;98.20;;;;;;5084009;28;20538;-73
2021/01/19 12:54:56;;;;;;;1.60;1.20;;;8.00;98.20;;;;;;5081343;28;20457;-76
2021/01/19 12:57:23;;;;;;;1.60;1.20;;;8.00;98.20;;;;;;5082508;28;20556;-76
2021/01/19 12:59:49;;;;;;;1.67;1.30;;;8.00;98.20;;;;;;5081701;28;20563;-76
2021/01/19 13:02:17;;;;;;;1.60;1.20;;;8.00;98.20;;;;;;5073845;28;20567;-75
2021/01/19 13:04:43;;;;;;;1.60;1.20;;;8.00;98.20;;;;;;5079347;28;20551;-75
2021/01/19 13:07:13;;;;;;;1.63;1.30;;;8.00;98.20;;;;;;5081661;28;20460;-76
2021/01/19 13:09:40;;;;;;;1.60;1.20;;;8.00;98.20;;;;;;5076301;28;20482;-76